createdAt,value
2022-12-11T00:02:30.770Z,40.27
2022-12-11T00:12:32.414Z,40.25
2022-12-11T00:22:34.029Z,40.27
2022-12-11T00:32:37.737Z,40.38
2022-12-11T00:42:39.384Z,40.42
2022-12-11T00:52:40.925Z,40.51
2022-12-11T01:02:42.419Z,40.71
2022-12-11T01:12:43.919Z,40.67
2022-12-11T01:22:45.321Z,40.84
2022-12-11T01:32:46.804Z,40.94
2022-12-11T01:42:48.171Z,41.03
2022-12-11T01:52:49.539Z,41.17
2022-12-11T02:02:50.939Z,41.16
2022-12-11T02:12:57.616Z,41.16
2022-12-11T02:23:17.605Z,40.96
2022-12-11T02:33:21.700Z,40.78
2022-12-11T02:43:23.305Z,40.62
2022-12-11T02:53:26.498Z,40.57
2022-12-11T03:03:28.585Z,40.54
2022-12-11T03:13:29.969Z,40.44
2022-12-11T03:24:03.573Z,40.37
2022-12-11T03:34:18.538Z,40.35
2022-12-11T03:44:20.205Z,40.27
2022-12-11T03:54:21.590Z,40.23
2022-12-11T04:04:23.004Z,40.21
2022-12-11T04:14:43.195Z,40.15
2022-12-11T04:24:44.748Z,40.09
2022-12-11T04:34:46.200Z,40.12
2022-12-11T04:44:47.581Z,40.10
2022-12-11T04:54:49.018Z,40.23
2022-12-11T05:04:50.567Z,40.14
2022-12-11T05:14:54.959Z,40.29
2022-12-11T05:24:58.658Z,40.25
2022-12-11T05:35:00.035Z,40.14
2022-12-11T05:45:01.418Z,40.01
2022-12-11T05:55:02.836Z,39.86
2022-12-11T06:05:04.329Z,39.83
2022-12-11T06:15:06.103Z,39.74
2022-12-11T06:25:07.786Z,39.77
2022-12-11T06:35:09.708Z,39.69
2022-12-11T06:45:11.588Z,39.67
2022-12-11T06:55:13.527Z,39.70
2022-12-11T07:05:15.070Z,39.69
2022-12-11T07:15:16.671Z,39.69
2022-12-11T07:25:18.124Z,39.76
2022-12-11T07:35:19.527Z,39.59
2022-12-11T07:45:20.917Z,39.66
2022-12-11T07:55:22.343Z,39.60
2022-12-11T08:05:23.787Z,39.63
2022-12-11T08:15:29.356Z,39.68
2022-12-11T08:25:30.730Z,39.47
2022-12-11T08:35:32.301Z,39.54
2022-12-11T08:45:33.748Z,39.54
2022-12-11T08:55:35.181Z,39.63
2022-12-11T09:05:48.295Z,39.58
2022-12-11T09:15:49.731Z,39.74
2022-12-11T09:26:03.064Z,39.54
2022-12-11T09:36:05.019Z,39.56
2022-12-11T09:46:16.467Z,39.55
2022-12-11T09:56:27.498Z,39.56
2022-12-11T10:06:54.670Z,39.64
2022-12-11T10:17:20.591Z,39.70
2022-12-11T10:27:23.800Z,39.58
2022-12-11T10:37:25.169Z,39.56
2022-12-11T10:47:26.910Z,39.55
2022-12-11T10:57:35.567Z,39.61
2022-12-11T11:07:37.136Z,39.66
2022-12-11T11:18:14.282Z,39.57
2022-12-11T11:28:22.584Z,39.50
2022-12-11T11:38:27.107Z,39.48
2022-12-11T11:48:48.768Z,39.63
2022-12-11T11:59:12.820Z,39.52
2022-12-11T12:09:29.512Z,39.45
2022-12-11T12:19:49.717Z,39.30
2022-12-11T12:30:18.770Z,39.31
2022-12-11T12:40:43.079Z,39.22
2022-12-11T12:50:47.840Z,39.28
2022-12-11T13:00:49.254Z,39.21
2022-12-11T13:10:59.547Z,39.37
2022-12-11T13:21:01.465Z,39.32
2022-12-11T13:31:14.889Z,39.46
2022-12-11T13:41:17.435Z,39.61
2022-12-11T13:51:21.146Z,39.77
2022-12-11T14:01:30.548Z,39.82
2022-12-11T14:11:37.116Z,40.05
2022-12-11T14:21:38.502Z,40.09
2022-12-11T14:31:41.751Z,39.96
2022-12-11T14:41:47.793Z,40.15
2022-12-11T14:51:49.293Z,40.29
2022-12-11T15:02:04.368Z,40.52
2022-12-11T15:12:24.237Z,40.51
2022-12-11T15:22:26.142Z,40.68
2022-12-11T15:32:27.606Z,40.66
2022-12-11T15:42:39.935Z,40.79
2022-12-11T15:52:41.531Z,40.90
2022-12-11T16:02:43.143Z,41.04
2022-12-11T16:12:44.736Z,41.15
2022-12-11T16:22:46.181Z,41.45
2022-12-11T16:32:47.671Z,41.59
2022-12-11T16:42:49.402Z,41.69
2022-12-11T16:52:51.024Z,41.62
2022-12-11T17:02:52.655Z,41.78
2022-12-11T17:12:54.282Z,41.71
2022-12-11T17:22:56.075Z,41.66
2022-12-11T17:32:57.487Z,41.93
2022-12-11T17:42:58.989Z,41.89
2022-12-11T17:53:00.637Z,42.00
2022-12-11T18:03:02.168Z,41.91
2022-12-11T18:13:03.574Z,42.26
2022-12-11T18:23:05.023Z,42.15
2022-12-11T18:33:06.568Z,42.26
2022-12-11T18:43:08.094Z,41.93
2022-12-11T18:53:09.875Z,41.67
2022-12-11T19:03:11.931Z,41.49
2022-12-11T19:13:13.636Z,41.36
2022-12-11T19:23:15.292Z,41.21
2022-12-11T19:33:16.717Z,40.99
2022-12-11T19:43:19.460Z,41.01
2022-12-11T19:53:20.896Z,40.77
2022-12-11T20:03:22.482Z,40.56
2022-12-11T20:13:23.964Z,40.79
2022-12-11T20:23:25.376Z,40.56
2022-12-11T20:33:26.877Z,40.47
2022-12-11T20:43:28.311Z,40.66
2022-12-11T20:53:29.804Z,40.77
2022-12-11T21:03:35.381Z,40.58
2022-12-11T21:13:38.983Z,40.91
2022-12-11T21:23:40.400Z,40.47
2022-12-11T21:33:41.915Z,41.07
2022-12-11T21:44:14.525Z,41.32
2022-12-11T21:54:06.179Z,41.25
2022-12-11T22:04:08.258Z,41.42
2022-12-11T22:14:12.384Z,41.44
2022-12-11T22:24:14.191Z,41.57
2022-12-11T22:34:15.568Z,41.09
2022-12-11T22:44:18.416Z,41.35
2022-12-11T22:54:19.865Z,40.97
2022-12-11T23:04:21.338Z,40.93
2022-12-11T23:14:25.194Z,40.92
2022-12-11T23:24:26.587Z,40.75
2022-12-11T23:34:28.116Z,40.60
2022-12-11T23:44:29.521Z,40.50
2022-12-11T23:54:31.098Z,40.52
